Autoprogress — CQQF — position and weather

sailwx.info

Track history (hours):
 
Tides and Currents Weather Stations Pressure Air Temp Water Temp Dewpoint Dewpoint Depression Visibility Wind Speed Wind Dir Waves Ship Positions

Autoprogress

Last reported at 2018-Feb-21 09:30 UTC. Time now 2018-Feb-21 09:40 UTC.
Position N 49°28' E 000°07'.

Length 125 m; draft 5.6 m.

Type: Cargo ship. MMSI: 255801570.

Date/timePositionNaut miles runAvg speedWind from/ knotsBaromVisibWave heightAir tempDewpointWater temp
2018-Feb-21 09:30N 49°28' E 000°07'714.5
2018-Feb-21 09:00N 49°30' W 000°03'714.2
2018-Feb-21 08:30N 49°36' W 000°10'610.9
2018-Feb-21 08:00N 49°41' W 000°15'511.1
2018-Feb-21 07:30N 49°45' W 000°19'611.2
2018-Feb-21 07:00N 49°50' W 000°23'611.5
2018-Feb-21 06:30N 49°55' W 000°27'611.5
2018-Feb-21 06:00N 50°00' W 000°32'2611.5
2018-Feb-21 03:44N 50°24' W 000°49'311.9
2018-Feb-21 03:29N 50°27' W 000°51'611.5
2018-Feb-21 03:00N 50°32' W 000°54'611.8
2018-Feb-21 02:30N 50°37' W 000°59'612.3
2018-Feb-21 02:00N 50°43' W 001°02'612.0
2018-Feb-21 01:30N 50°46' W 001°10'611.9
2018-Feb-21 01:00N 50°49' W 001°18'610.9
2018-Feb-21 00:30N 50°53' W 001°24'2 2.9
2018-Feb-20 23:58N 50°54' W 001°26'0 0.0
2018-Feb-20 23:28N 50°54' W 001°26'0 0.0
2018-Feb-20 22:58N 50°54' W 001°26'0 0.0
2018-Feb-20 22:28N 50°54' W 001°26'0 0.0
2018-Feb-20 21:58N 50°54' W 001°26'0 0.0
2018-Feb-20 21:28N 50°54' W 001°26'0 0.0
2018-Feb-20 20:58N 50°54' W 001°26'0 0.0
2018-Feb-20 20:28N 50°54' W 001°26'0 0.0
2018-Feb-20 19:58N 50°54' W 001°26'0 0.0
2018-Feb-20 19:28N 50°54' W 001°26'0 0.0
2018-Feb-20 18:58N 50°54' W 001°26'0 0.0
2018-Feb-20 18:28N 50°54' W 001°26'0 0.0
2018-Feb-20 18:01N 50°54' W 001°26'2 3.6
2018-Feb-20 17:30N 50°53' W 001°24'1 0.9
2018-Feb-20 16:55N 50°53' W 001°24'0 0.0
2018-Feb-20 16:28N 50°53' W 001°24'0 0.0
2018-Feb-20 15:58N 50°53' W 001°24'0 0.0
2018-Feb-20 15:28N 50°53' W 001°24'0 0.0
2018-Feb-20 14:58N 50°53' W 001°24'0 0.0
2018-Feb-20 14:28N 50°53' W 001°24'0 0.0
2018-Feb-20 13:58N 50°53' W 001°24'0 0.1
2018-Feb-20 13:30N 50°53' W 001°24'1 3.0
2018-Feb-20 13:00N 50°52' W 001°23'510.6
2018-Feb-20 12:30N 50°48' W 001°17'510.9
2018-Feb-20 12:01N 50°46' W 001°09'510.9
2018-Feb-20 11:30N 50°43' W 001°01'611.5
2018-Feb-20 11:00N 50°40' W 000°54'510.8
2018-Feb-20 10:30N 50°38' W 000°46'611.5
2018-Feb-20 10:01N 50°37' W 000°37'612.0
2018-Feb-20 09:30N 50°35' W 000°28'611.5
2018-Feb-20 09:00N 50°34' W 000°19'612.2
2018-Feb-20 08:31N 50°33' W 000°10'612.2
2018-Feb-20 08:00N 50°32' W 000°00'612.6
2018-Feb-20 07:30N 50°34' E 000°09'713.0
2018-Feb-20 07:00N 50°36' E 000°19'713.0
2018-Feb-20 06:30N 50°38' E 000°29'612.7
2018-Feb-20 06:00N 50°40' E 000°38'713.5
2018-Feb-20 05:30N 50°44' E 000°47'713.1
2018-Feb-20 05:00N 50°48' E 000°55'713.2
2018-Feb-20 04:30N 50°52' E 001°03'713.6
2018-Feb-20 04:01N 50°56' E 001°12'612.6
2018-Feb-20 03:30N 51°00' E 001°20'611.8
2018-Feb-20 03:00N 51°04' E 001°27'611.7
2018-Feb-20 02:30N 51°08' E 001°34'612.0
2018-Feb-20 02:00N 51°11' E 001°42'612.6
2018-Feb-20 01:30N 51°16' E 001°48'713.8
2018-Feb-20 01:00N 51°22' E 001°54'713.6
2018-Feb-20 00:31N 51°24' E 002°04'714.4
2018-Feb-20 00:00N 51°22' E 002°15'612.0
2018-Feb-19 23:29N 51°22' E 002°25'915.5
2018-Feb-19 22:56N 51°23' E 002°39'512.1
2018-Feb-19 22:30N 51°22' E 002°47'1019.4
2018-Feb-19 22:00N 51°24' E 003°02'815.8
2018-Feb-19 21:30N 51°20' E 003°13'1 1.0
2018-Feb-19 21:00N 51°20' E 003°13'0 0.1
2018-Feb-19 20:30N 51°20' E 003°13'1 1.7
2018-Feb-19 20:00N 51°19' E 003°13'0 0.6
2018-Feb-19 19:28N 51°19' E 003°13'0 0.0
2018-Feb-19 18:58N 51°19' E 003°13'0 0.0
2018-Feb-19 18:28N 51°20' E 003°13'0 0.0
2018-Feb-19 17:58N 51°19' E 003°13'0 0.0
2018-Feb-19 17:28N 51°19' E 003°13'0 0.0
2018-Feb-19 16:58N 51°20' E 003°13'0 0.0
2018-Feb-19 16:28N 51°19' E 003°13'0 0.0
2018-Feb-19 15:58N 51°20' E 003°13'0 0.0
2018-Feb-19 15:31N 51°20' E 003°13'0 0.0
2018-Feb-19 15:01N 51°20' E 003°13'0 0.0
2018-Feb-19 14:31N 51°19' E 003°13'0 0.0
2018-Feb-19 14:00N 51°19' E 003°13'0 0.0
2018-Feb-19 13:30N 51°19' E 003°13'0 0.0
2018-Feb-19 13:00N 51°20' E 003°13'0 0.0
2018-Feb-19 12:30N 51°19' E 003°13'0 0.0
2018-Feb-19 12:00N 51°19' E 003°13'0 0.0
2018-Feb-19 11:30N 51°19' E 003°13'0 0.0
2018-Feb-19 11:00N 51°19' E 003°13'0 0.0
2018-Feb-19 10:30N 51°19' E 003°13'0 0.0
2018-Feb-19 10:00N 51°20' E 003°13'0 0.0
2018-Feb-19 09:30N 51°19' E 003°13'0 0.0
2018-Feb-19 09:00N 51°20' E 003°13'0 0.0
2018-Feb-19 08:24N 51°20' E 003°13'0 0.0
2018-Feb-19 08:00N 51°20' E 003°13'0 0.0
2018-Feb-19 07:30N 51°19' E 003°13'0 0.0
2018-Feb-19 07:00N 51°20' E 003°13'0 0.0
2018-Feb-19 06:30N 51°19' E 003°13'0 0.0
2018-Feb-19 06:00N 51°20' E 003°13'0 0.0
2018-Feb-19 05:30N 51°20' E 003°13'0 0.0
2018-Feb-19 05:00N 51°20' E 003°13'0 0.0
2018-Feb-19 04:30N 51°20' E 003°13'0 0.0
2018-Feb-19 04:00N 51°20' E 003°13'0 0.0
2018-Feb-19 03:30N 51°20' E 003°13'1 1.1
2018-Feb-19 03:00N 51°19' E 003°13'1 2.0
2018-Feb-19 02:30N 51°20' E 003°13'3 5.1
2018-Feb-19 02:00N 51°22' E 003°11'917.4
2018-Feb-19 01:30N 51°23' E 002°57'816.2
2018-Feb-19 00:59N 51°22' E 002°43'510.5
2018-Feb-19 00:30N 51°22' E 002°35'510.4
2018-Feb-19 00:00N 51°21' E 002°27'510.7
2018-Feb-18 23:31N 51°18' E 002°20'611.3
2018-Feb-18 23:00N 51°15' E 002°12'611.7
2018-Feb-18 22:30N 51°13' E 002°04'611.2
2018-Feb-18 22:00N 51°10' E 001°56'511.0
2018-Feb-18 21:31N 51°07' E 001°48'510.6
2018-Feb-18 21:00N 51°04' E 001°41'510.6
2018-Feb-18 20:30N 51°00' E 001°35'510.9
2018-Feb-18 20:00N 50°56' E 001°30'510.7
2018-Feb-18 19:31N 50°51' E 001°27'1011.6
2018-Feb-18 18:37N 50°41' E 001°21'111.9
2018-Feb-18 18:30N 50°40' E 001°20'912.1
2018-Feb-18 17:48N 50°35' E 001°10'412.5
2018-Feb-18 17:28N 50°32' E 001°05'612.0
2018-Feb-18 17:00N 50°29' E 000°58'2911.9
2018-Feb-18 14:34N 50°21' E 000°14'111.3
2018-Feb-18 14:29N 50°21' E 000°12'611.5
2018-Feb-18 13:59N 50°19' E 000°04'611.8
2018-Feb-18 13:30N 50°18' W 000°05'612.2
2018-Feb-18 13:00N 50°16' W 000°14'612.6
2018-Feb-18 12:30N 50°14' W 000°23'1613.8
2018-Feb-18 11:22N 50°10' W 000°47'514.8
2018-Feb-18 11:00N 50°09' W 000°55'815.5
2018-Feb-18 10:30N 50°07' W 001°07'917.1
2018-Feb-18 10:00N 50°04' W 001°20'917.4
2018-Feb-18 09:31N 50°02' W 001°33'917.6
2018-Feb-18 09:00N 49°60' W 001°46'917.4
2018-Feb-18 08:31N 49°57' W 001°59'816.6
2018-Feb-18 08:00N 49°55' W 002°11'2415.1
2018-Feb-18 06:24N 49°49' W 002°47'8413.2
2018-Feb-18 00:04N 49°07' W 004°39'411.9
2018-Feb-17 23:43N 49°05' W 004°45'312.0
2018-Feb-17 23:29N 49°03' W 004°48'611.9
2018-Feb-17 23:00N 49°00' W 004°55'612.0
2018-Feb-17 22:29N 48°57' W 005°03'511.2
2018-Feb-17 22:00N 48°55' W 005°11'814.8
2018-Feb-17 21:29N 48°51' W 005°21'715.2
2018-Feb-17 20:59N 48°47' W 005°31'814.9
2018-Feb-17 20:29N 48°42' W 005°40'715.1
2018-Feb-17 20:00N 48°36' W 005°44'814.9
2018-Feb-17 19:30N 48°29' W 005°39'715.1
2018-Feb-17 19:00N 48°22' W 005°34'815.4
2018-Feb-17 18:30N 48°15' W 005°29'815.5
2018-Feb-17 18:00N 48°08' W 005°24'815.5
2018-Feb-17 17:30N 48°01' W 005°19'715.1
2018-Feb-17 17:00N 47°55' W 005°14'715.1
2018-Feb-17 16:30N 47°48' W 005°09'815.0
2018-Feb-17 16:00N 47°41' W 005°04'814.9
2018-Feb-17 15:30N 47°34' W 004°59'22514.2
2018-Feb-16 23:36N 44°13' W 002°33'114.9
2018-Feb-16 23:31N 44°12' W 002°32'714.7
2018-Feb-16 23:01N 44°06' W 002°27'714.4
2018-Feb-16 22:30N 43°59' W 002°23'714.6
2018-Feb-16 22:01N 43°53' W 002°18'713.8
2018-Feb-16 21:30N 43°47' W 002°14'713.9
2018-Feb-16 21:01N 43°40' W 002°09'714.0
2018-Feb-16 20:30N 43°34' W 002°05'713.8
2018-Feb-16 20:00N 43°28' W 002°01'714.0
2018-Feb-16 19:30N 43°22' W 001°56'2 0.2
2018-Feb-16 08:00N 43°19' W 001°55'4 9.1
2018-Feb-16 07:30N 43°23' W 001°58'918.9
2018-Feb-16 07:00N 43°32' W 002°04'815.3
2018-Feb-16 06:30N 43°39' W 002°09'713.5
2018-Feb-16 06:00N 43°45' W 002°13'714.2
2018-Feb-16 05:30N 43°51' W 002°18'713.6
2018-Feb-16 05:00N 43°57' W 002°22'713.5
2018-Feb-16 04:31N 44°03' W 002°27'714.1
2018-Feb-16 04:00N 44°09' W 002°31'713.5
2018-Feb-16 03:30N 44°15' W 002°36'21515.1
2018-Feb-15 13:14N 47°26' W 004°59'414.8
2018-Feb-15 12:57N 47°29' W 005°01'714.6
2018-Feb-15 12:27N 47°36' W 005°07'714.5
2018-Feb-15 11:57N 47°42' W 005°12'614.5
2018-Feb-15 11:30N 47°48' W 005°16'814.6
2018-Feb-15 10:57N 47°55' W 005°22'714.9
2018-Feb-15 10:29N 48°01' W 005°27'815.3
2018-Feb-15 09:57N 48°08' W 005°33'815.6
2018-Feb-15 09:28N 48°15' W 005°38'10512.1
2018-Feb-15 00:47N 49°36' W 003°55'918.6
2018-Feb-15 00:18N 49°40' W 003°43'518.8
2018-Feb-15 00:00N 49°43' W 003°36'1019.0
2018-Feb-14 23:30N 49°48' W 003°23'918.9
2018-Feb-14 23:01N 49°52' W 003°11'918.7
2018-Feb-14 22:31N 49°57' W 002°58'917.9
2018-Feb-14 22:00N 49°60' W 002°45'917.4
2018-Feb-14 21:29N 50°02' W 002°31'5815.5
2018-Feb-14 17:44N 49°45' W 001°05'416.9
2018-Feb-14 17:31N 49°44' W 000°59'917.8
2018-Feb-14 17:00N 49°41' W 000°46'918.9
2018-Feb-14 16:30N 49°38' W 000°32'1019.4
2018-Feb-14 16:01N 49°34' W 000°18'1019.5
2018-Feb-14 15:30N 49°31' W 000°04'714.9
2018-Feb-14 15:00N 49°29' E 000°07'2 4.7
2018-Feb-14 14:30N 49°29' E 000°10'0 0.3
2018-Feb-14 14:00N 49°29' E 000°11'1 1.8
2018-Feb-14 13:28N 49°28' E 000°12'0 0.0
2018-Feb-14 12:58N 49°28' E 000°12'0 0.0
2018-Feb-14 12:28N 49°28' E 000°12'0 0.0
2018-Feb-14 11:58N 49°28' E 000°12'0 0.0
2018-Feb-14 11:28N 49°28' E 000°12'0 0.0
2018-Feb-14 10:58N 49°28' E 000°12'0 0.0
2018-Feb-14 10:28N 49°28' E 000°12'0 0.0
2018-Feb-14 09:58N 49°28' E 000°12'0 0.0
2018-Feb-14 09:28N 49°28' E 000°12'0 0.0
2018-Feb-14 08:58N 49°28' E 000°12'0 0.0
2018-Feb-14 08:28N 49°28' E 000°12'0 0.0
2018-Feb-14 07:58N 49°28' E 000°12'0 0.0
2018-Feb-14 07:28N 49°28' E 000°12'0 0.0
2018-Feb-14 06:58N 49°28' E 000°12'0 0.0
2018-Feb-14 06:28N 49°28' E 000°12'0 0.0
2018-Feb-14 05:58N 49°28' E 000°12'0 0.0
2018-Feb-14 05:28N 49°28' E 000°12'0 0.0
2018-Feb-14 04:58N 49°28' E 000°12'0 0.0
2018-Feb-14 04:28N 49°28' E 000°12'0 0.0
2018-Feb-14 03:58N 49°28' E 000°12'0 1.0
2018-Feb-14 03:31N 49°29' E 000°11'1 1.3
2018-Feb-14 03:00N 49°29' E 000°10'0 0.0
2018-Feb-14 02:30N 49°29' E 000°10'2 3.8
2018-Feb-14 02:00N 49°28' E 000°07'714.8
2018-Feb-14 01:30N 49°30' W 000°04'612.6
2018-Feb-14 01:00N 49°34' W 000°12'5 9.1
2018-Feb-14 00:30N 49°38' W 000°13'4 7.6
2018-Feb-14 00:00N 49°41' W 000°16'4 8.6
2018-Feb-13 23:30N 49°45' W 000°19'714.9
2018-Feb-13 23:00N 49°52' W 000°24'917.1
2018-Feb-13 22:30N 49°59' W 000°30'2717.4
2018-Feb-13 20:59N 50°23' W 000°49'817.3
2018-Feb-13 20:30N 50°31' W 000°54'917.3
2018-Feb-13 20:00N 50°39' W 000°59'815.9
2018-Feb-13 19:30N 50°45' W 001°07'815.1
2018-Feb-13 19:00N 50°47' W 001°18'510.3
2018-Feb-13 18:30N 50°51' W 001°21'4 6.9
2018-Feb-13 17:56N 50°54' W 001°26'0 0.0
2018-Feb-13 17:23N 50°54' W 001°26'0 0.0
2018-Feb-13 16:56N 50°54' W 001°26'0 0.0
2018-Feb-13 13:14N 50°54' W 001°26'0 0.0
2018-Feb-13 12:53N 50°54' W 001°26'0 0.0
2018-Feb-13 11:26N 50°54' W 001°26'0 0.0
2018-Feb-13 10:56N 50°54' W 001°26'0 0.0
2018-Feb-13 10:17N 50°54' W 001°26'0 0.0
2018-Feb-13 09:56N 50°54' W 001°26'0 0.0
2018-Feb-13 09:29N 50°54' W 001°26'0 0.0
2018-Feb-13 08:59N 50°54' W 001°26'0 0.0
2018-Feb-13 08:26N 50°54' W 001°26'0 0.0
2018-Feb-13 07:50N 50°54' W 001°26'0 0.0
2018-Feb-13 07:29N 50°54' W 001°26'0 0.0
2018-Feb-13 06:56N 50°54' W 001°26'0 0.0
2018-Feb-13 06:30N 50°54' W 001°26'1 2.6
2018-Feb-13 06:00N 50°53' W 001°24'5 9.3
2018-Feb-13 05:31N 50°50' W 001°19'510.1
2018-Feb-13 05:00N 50°46' W 001°14'611.9
2018-Feb-13 04:31N 50°44' W 001°05'510.8
2018-Feb-13 04:00N 50°41' W 000°58'510.4
2018-Feb-13 03:30N 50°39' W 000°51'4 8.3
2018-Feb-13 03:00N 50°38' W 000°44'5 9.2
2018-Feb-13 02:30N 50°37' W 000°37'5 9.3
2018-Feb-13 02:00N 50°36' W 000°30'5 9.3
2018-Feb-13 01:30N 50°35' W 000°23'5 9.6
2018-Feb-13 01:00N 50°34' W 000°16'713.6
2018-Feb-13 00:31N 50°33' W 000°05'713.9
2018-Feb-13 00:01N 50°34' E 000°05'713.7
2018-Feb-12 23:30N 50°36' E 000°16'713.7
2018-Feb-12 23:00N 50°37' E 000°26'713.3
2018-Feb-12 22:30N 50°39' E 000°37'713.3
2018-Feb-12 22:00N 50°43' E 000°45'713.2
2018-Feb-12 21:30N 50°47' E 000°53'713.1
2018-Feb-12 21:00N 50°51' E 001°02'612.8
2018-Feb-12 20:30N 50°55' E 001°10'713.2
2018-Feb-12 20:00N 50°59' E 001°18'713.9
2018-Feb-12 19:30N 51°04' E 001°26'815.3
2018-Feb-12 19:01N 51°08' E 001°36'815.5
2018-Feb-12 18:31N 51°14' E 001°45'815.9
2018-Feb-12 18:00N 51°20' E 001°53'714.4
2018-Feb-12 17:31N 51°25' E 002°02'714.3
2018-Feb-12 17:01N 51°22' E 002°12'713.9
2018-Feb-12 16:30N 51°22' E 002°23'714.6
2018-Feb-12 16:00N 51°23' E 002°35'612.9
2018-Feb-12 15:30N 51°22' E 002°45'815.6
2018-Feb-12 15:00N 51°23' E 002°58'816.6
2018-Feb-12 14:30N 51°22' E 003°11'3 4.9
2018-Feb-12 13:59N 51°20' E 003°13'0 0.0
2018-Feb-12 13:29N 51°20' E 003°13'1 1.5
2018-Feb-12 13:01N 51°19' E 003°13'0 0.1
2018-Feb-12 12:29N 51°19' E 003°13'0 0.0
2018-Feb-12 11:59N 51°19' E 003°13'0 0.0
2018-Feb-12 11:29N 51°19' E 003°13'0 0.0
2018-Feb-12 10:59N 51°19' E 003°13'0 0.0
2018-Feb-12 10:29N 51°19' E 003°13'0 0.0
2018-Feb-12 09:59N 51°19' E 003°13'0 0.0
2018-Feb-12 09:29N 51°19' E 003°13'0 0.0
2018-Feb-12 08:59N 51°19' E 003°13'0 0.0
2018-Feb-12 08:29N 51°19' E 003°13'0 0.0
2018-Feb-12 07:58N 51°19' E 003°13'0 0.0
2018-Feb-12 07:28N 51°19' E 003°13'0 0.0
2018-Feb-12 06:58N 51°19' E 003°13'0 0.0
2018-Feb-12 06:28N 51°19' E 003°13'0 0.0
2018-Feb-12 05:58N 51°19' E 003°13'0 0.0
2018-Feb-12 05:28N 51°19' E 003°13'0 0.0
2018-Feb-12 04:58N 51°19' E 003°13'0 0.0
2018-Feb-12 04:28N 51°19' E 003°13'0 0.0
2018-Feb-12 03:58N 51°19' E 003°13'1 1.2
2018-Feb-12 03:30N 51°19' E 003°13'1 2.1
2018-Feb-12 03:00N 51°20' E 003°13'0 0.0
2018-Feb-12 02:30N 51°20' E 003°13'1 1.5
2018-Feb-12 02:00N 51°21' E 003°12'714.4
2018-Feb-12 01:31N 51°24' E 003°02'917.4
2018-Feb-12 01:00N 51°22' E 002°49'713.3
2018-Feb-12 00:30N 51°22' E 002°38'713.9
2018-Feb-12 00:00N 51°21' E 002°27'613.0
2018-Feb-11 23:30N 51°18' E 002°18'611.6
2018-Feb-11 23:00N 51°15' E 002°10'611.9
2018-Feb-11 22:30N 51°12' E 002°01'611.3
2018-Feb-11 22:00N 51°09' E 001°54'611.4
2018-Feb-11 21:30N 51°06' E 001°47'611.6
2018-Feb-11 20:59N 51°01' E 001°40'612.2
2018-Feb-11 20:30N 50°57' E 001°34'612.9
2018-Feb-11 20:00N 50°51' E 001°28'611.9
2018-Feb-11 19:28N 50°45' E 001°25'711.6
2018-Feb-11 18:52N 50°40' E 001°19'5012.2
2018-Feb-11 14:49N 50°19' E 000°07'413.4
2018-Feb-11 14:30N 50°18' E 000°01'713.2
2018-Feb-11 13:57N 50°16' W 000°10'2212.5
2018-Feb-11 12:10N 50°11' W 000°44'212.1
2018-Feb-11 12:00N 50°10' W 000°47'612.1
2018-Feb-11 11:30N 50°09' W 000°56'611.9
2018-Feb-11 11:00N 50°07' W 001°05'611.8
2018-Feb-11 10:30N 50°05' W 001°13'611.9
2018-Feb-11 10:00N 50°03' W 001°22'  
Track history (hours):
 
Tides and Currents Weather Stations Pressure Air Temp Water Temp Dewpoint Dewpoint Depression Visibility Wind Speed Wind Dir Waves Ship Positions

Autoprogress

Last reported at 2018-Feb-21 09:30 UTC. Time now 2018-Feb-21 09:40 UTC.
Position N 49°28' E 000°07'.

Length 125 m; draft 5.6 m.

Type: Cargo ship. MMSI: 255801570.

Date/timePositionNaut miles runAvg speedWind from/ knotsBaromVisibWave heightAir tempDewpointWater temp
2018-Feb-21 09:30N 49°28' E 000°07'714.5
2018-Feb-21 09:00N 49°30' W 000°03'714.2
2018-Feb-21 08:30N 49°36' W 000°10'610.9
2018-Feb-21 08:00N 49°41' W 000°15'511.1
2018-Feb-21 07:30N 49°45' W 000°19'611.2
2018-Feb-21 07:00N 49°50' W 000°23'611.5
2018-Feb-21 06:30N 49°55' W 000°27'611.5
2018-Feb-21 06:00N 50°00' W 000°32'2611.5
2018-Feb-21 03:44N 50°24' W 000°49'311.9
2018-Feb-21 03:29N 50°27' W 000°51'611.5
2018-Feb-21 03:00N 50°32' W 000°54'611.8
2018-Feb-21 02:30N 50°37' W 000°59'612.3
2018-Feb-21 02:00N 50°43' W 001°02'612.0
2018-Feb-21 01:30N 50°46' W 001°10'611.9
2018-Feb-21 01:00N 50°49' W 001°18'610.9
2018-Feb-21 00:30N 50°53' W 001°24'2 2.9
2018-Feb-20 23:58N 50°54' W 001°26'0 0.0
2018-Feb-20 23:28N 50°54' W 001°26'0 0.0
2018-Feb-20 22:58N 50°54' W 001°26'0 0.0
2018-Feb-20 22:28N 50°54' W 001°26'0 0.0
2018-Feb-20 21:58N 50°54' W 001°26'0 0.0
2018-Feb-20 21:28N 50°54' W 001°26'0 0.0
2018-Feb-20 20:58N 50°54' W 001°26'0 0.0
2018-Feb-20 20:28N 50°54' W 001°26'0 0.0
2018-Feb-20 19:58N 50°54' W 001°26'0 0.0
2018-Feb-20 19:28N 50°54' W 001°26'0 0.0
2018-Feb-20 18:58N 50°54' W 001°26'0 0.0
2018-Feb-20 18:28N 50°54' W 001°26'0 0.0
2018-Feb-20 18:01N 50°54' W 001°26'2 3.6
2018-Feb-20 17:30N 50°53' W 001°24'1 0.9
2018-Feb-20 16:55N 50°53' W 001°24'0 0.0
2018-Feb-20 16:28N 50°53' W 001°24'0 0.0
2018-Feb-20 15:58N 50°53' W 001°24'0 0.0
2018-Feb-20 15:28N 50°53' W 001°24'0 0.0
2018-Feb-20 14:58N 50°53' W 001°24'0 0.0
2018-Feb-20 14:28N 50°53' W 001°24'0 0.0
2018-Feb-20 13:58N 50°53' W 001°24'0 0.1
2018-Feb-20 13:30N 50°53' W 001°24'1 3.0
2018-Feb-20 13:00N 50°52' W 001°23'510.6
2018-Feb-20 12:30N 50°48' W 001°17'510.9
2018-Feb-20 12:01N 50°46' W 001°09'510.9
2018-Feb-20 11:30N 50°43' W 001°01'611.5
2018-Feb-20 11:00N 50°40' W 000°54'510.8
2018-Feb-20 10:30N 50°38' W 000°46'611.5
2018-Feb-20 10:01N 50°37' W 000°37'612.0
2018-Feb-20 09:30N 50°35' W 000°28'611.5
2018-Feb-20 09:00N 50°34' W 000°19'612.2
2018-Feb-20 08:31N 50°33' W 000°10'612.2
2018-Feb-20 08:00N 50°32' W 000°00'612.6
2018-Feb-20 07:30N 50°34' E 000°09'713.0
2018-Feb-20 07:00N 50°36' E 000°19'713.0
2018-Feb-20 06:30N 50°38' E 000°29'612.7
2018-Feb-20 06:00N 50°40' E 000°38'713.5
2018-Feb-20 05:30N 50°44' E 000°47'713.1
2018-Feb-20 05:00N 50°48' E 000°55'713.2
2018-Feb-20 04:30N 50°52' E 001°03'713.6
2018-Feb-20 04:01N 50°56' E 001°12'612.6
2018-Feb-20 03:30N 51°00' E 001°20'611.8
2018-Feb-20 03:00N 51°04' E 001°27'611.7
2018-Feb-20 02:30N 51°08' E 001°34'612.0
2018-Feb-20 02:00N 51°11' E 001°42'612.6
2018-Feb-20 01:30N 51°16' E 001°48'713.8
2018-Feb-20 01:00N 51°22' E 001°54'713.6
2018-Feb-20 00:31N 51°24' E 002°04'714.4
2018-Feb-20 00:00N 51°22' E 002°15'612.0
2018-Feb-19 23:29N 51°22' E 002°25'915.5
2018-Feb-19 22:56N 51°23' E 002°39'512.1
2018-Feb-19 22:30N 51°22' E 002°47'1019.4
2018-Feb-19 22:00N 51°24' E 003°02'815.8
2018-Feb-19 21:30N 51°20' E 003°13'1 1.0
2018-Feb-19 21:00N 51°20' E 003°13'0 0.1
2018-Feb-19 20:30N 51°20' E 003°13'1 1.7
2018-Feb-19 20:00N 51°19' E 003°13'0 0.6
2018-Feb-19 19:28N 51°19' E 003°13'0 0.0
2018-Feb-19 18:58N 51°19' E 003°13'0 0.0
2018-Feb-19 18:28N 51°20' E 003°13'0 0.0
2018-Feb-19 17:58N 51°19' E 003°13'0 0.0
2018-Feb-19 17:28N 51°19' E 003°13'0 0.0
2018-Feb-19 16:58N 51°20' E 003°13'0 0.0
2018-Feb-19 16:28N 51°19' E 003°13'0 0.0
2018-Feb-19 15:58N 51°20' E 003°13'0 0.0
2018-Feb-19 15:31N 51°20' E 003°13'0 0.0
2018-Feb-19 15:01N 51°20' E 003°13'0 0.0
2018-Feb-19 14:31N 51°19' E 003°13'0 0.0
2018-Feb-19 14:00N 51°19' E 003°13'0 0.0
2018-Feb-19 13:30N 51°19' E 003°13'0 0.0
2018-Feb-19 13:00N 51°20' E 003°13'0 0.0
2018-Feb-19 12:30N 51°19' E 003°13'0 0.0
2018-Feb-19 12:00N 51°19' E 003°13'0 0.0
2018-Feb-19 11:30N 51°19' E 003°13'0 0.0
2018-Feb-19 11:00N 51°19' E 003°13'0 0.0
2018-Feb-19 10:30N 51°19' E 003°13'0 0.0
2018-Feb-19 10:00N 51°20' E 003°13'0 0.0
2018-Feb-19 09:30N 51°19' E 003°13'0 0.0
2018-Feb-19 09:00N 51°20' E 003°13'0 0.0
2018-Feb-19 08:24N 51°20' E 003°13'0 0.0
2018-Feb-19 08:00N 51°20' E 003°13'0 0.0
2018-Feb-19 07:30N 51°19' E 003°13'0 0.0
2018-Feb-19 07:00N 51°20' E 003°13'0 0.0
2018-Feb-19 06:30N 51°19' E 003°13'0 0.0
2018-Feb-19 06:00N 51°20' E 003°13'0 0.0
2018-Feb-19 05:30N 51°20' E 003°13'0 0.0
2018-Feb-19 05:00N 51°20' E 003°13'0 0.0
2018-Feb-19 04:30N 51°20' E 003°13'0 0.0
2018-Feb-19 04:00N 51°20' E 003°13'0 0.0
2018-Feb-19 03:30N 51°20' E 003°13'1 1.1
2018-Feb-19 03:00N 51°19' E 003°13'1 2.0
2018-Feb-19 02:30N 51°20' E 003°13'3 5.1
2018-Feb-19 02:00N 51°22' E 003°11'917.4
2018-Feb-19 01:30N 51°23' E 002°57'816.2
2018-Feb-19 00:59N 51°22' E 002°43'510.5
2018-Feb-19 00:30N 51°22' E 002°35'510.4
2018-Feb-19 00:00N 51°21' E 002°27'510.7
2018-Feb-18 23:31N 51°18' E 002°20'611.3
2018-Feb-18 23:00N 51°15' E 002°12'611.7
2018-Feb-18 22:30N 51°13' E 002°04'611.2
2018-Feb-18 22:00N 51°10' E 001°56'511.0
2018-Feb-18 21:31N 51°07' E 001°48'510.6
2018-Feb-18 21:00N 51°04' E 001°41'510.6
2018-Feb-18 20:30N 51°00' E 001°35'510.9
2018-Feb-18 20:00N 50°56' E 001°30'510.7
2018-Feb-18 19:31N 50°51' E 001°27'1011.6
2018-Feb-18 18:37N 50°41' E 001°21'111.9
2018-Feb-18 18:30N 50°40' E 001°20'912.1
2018-Feb-18 17:48N 50°35' E 001°10'412.5
2018-Feb-18 17:28N 50°32' E 001°05'612.0
2018-Feb-18 17:00N 50°29' E 000°58'2911.9
2018-Feb-18 14:34N 50°21' E 000°14'111.3
2018-Feb-18 14:29N 50°21' E 000°12'611.5
2018-Feb-18 13:59N 50°19' E 000°04'611.8
2018-Feb-18 13:30N 50°18' W 000°05'612.2
2018-Feb-18 13:00N 50°16' W 000°14'612.6
2018-Feb-18 12:30N 50°14' W 000°23'1613.8
2018-Feb-18 11:22N 50°10' W 000°47'514.8
2018-Feb-18 11:00N 50°09' W 000°55'815.5
2018-Feb-18 10:30N 50°07' W 001°07'917.1
2018-Feb-18 10:00N 50°04' W 001°20'917.4
2018-Feb-18 09:31N 50°02' W 001°33'917.6
2018-Feb-18 09:00N 49°60' W 001°46'917.4
2018-Feb-18 08:31N 49°57' W 001°59'816.6
2018-Feb-18 08:00N 49°55' W 002°11'2415.1
2018-Feb-18 06:24N 49°49' W 002°47'8413.2
2018-Feb-18 00:04N 49°07' W 004°39'411.9
2018-Feb-17 23:43N 49°05' W 004°45'312.0
2018-Feb-17 23:29N 49°03' W 004°48'611.9
2018-Feb-17 23:00N 49°00' W 004°55'612.0
2018-Feb-17 22:29N 48°57' W 005°03'511.2
2018-Feb-17 22:00N 48°55' W 005°11'814.8
2018-Feb-17 21:29N 48°51' W 005°21'715.2
2018-Feb-17 20:59N 48°47' W 005°31'814.9
2018-Feb-17 20:29N 48°42' W 005°40'715.1
2018-Feb-17 20:00N 48°36' W 005°44'814.9
2018-Feb-17 19:30N 48°29' W 005°39'715.1
2018-Feb-17 19:00N 48°22' W 005°34'815.4
2018-Feb-17 18:30N 48°15' W 005°29'815.5
2018-Feb-17 18:00N 48°08' W 005°24'815.5
2018-Feb-17 17:30N 48°01' W 005°19'715.1
2018-Feb-17 17:00N 47°55' W 005°14'715.1
2018-Feb-17 16:30N 47°48' W 005°09'815.0
2018-Feb-17 16:00N 47°41' W 005°04'814.9
2018-Feb-17 15:30N 47°34' W 004°59'22514.2
2018-Feb-16 23:36N 44°13' W 002°33'114.9
2018-Feb-16 23:31N 44°12' W 002°32'714.7
2018-Feb-16 23:01N 44°06' W 002°27'714.4
2018-Feb-16 22:30N 43°59' W 002°23'714.6
2018-Feb-16 22:01N 43°53' W 002°18'713.8
2018-Feb-16 21:30N 43°47' W 002°14'713.9
2018-Feb-16 21:01N 43°40' W 002°09'714.0
2018-Feb-16 20:30N 43°34' W 002°05'713.8
2018-Feb-16 20:00N 43°28' W 002°01'714.0
2018-Feb-16 19:30N 43°22' W 001°56'2 0.2
2018-Feb-16 08:00N 43°19' W 001°55'4 9.1
2018-Feb-16 07:30N 43°23' W 001°58'918.9
2018-Feb-16 07:00N 43°32' W 002°04'815.3
2018-Feb-16 06:30N 43°39' W 002°09'713.5
2018-Feb-16 06:00N 43°45' W 002°13'714.2
2018-Feb-16 05:30N 43°51' W 002°18'713.6
2018-Feb-16 05:00N 43°57' W 002°22'713.5
2018-Feb-16 04:31N 44°03' W 002°27'714.1
2018-Feb-16 04:00N 44°09' W 002°31'713.5
2018-Feb-16 03:30N 44°15' W 002°36'21515.1
2018-Feb-15 13:14N 47°26' W 004°59'414.8
2018-Feb-15 12:57N 47°29' W 005°01'714.6
2018-Feb-15 12:27N 47°36' W 005°07'714.5
2018-Feb-15 11:57N 47°42' W 005°12'614.5
2018-Feb-15 11:30N 47°48' W 005°16'814.6
2018-Feb-15 10:57N 47°55' W 005°22'714.9
2018-Feb-15 10:29N 48°01' W 005°27'815.3
2018-Feb-15 09:57N 48°08' W 005°33'815.6
2018-Feb-15 09:28N 48°15' W 005°38'10512.1
2018-Feb-15 00:47N 49°36' W 003°55'918.6
2018-Feb-15 00:18N 49°40' W 003°43'518.8
2018-Feb-15 00:00N 49°43' W 003°36'1019.0
2018-Feb-14 23:30N 49°48' W 003°23'918.9
2018-Feb-14 23:01N 49°52' W 003°11'918.7
2018-Feb-14 22:31N 49°57' W 002°58'917.9
2018-Feb-14 22:00N 49°60' W 002°45'917.4
2018-Feb-14 21:29N 50°02' W 002°31'5815.5
2018-Feb-14 17:44N 49°45' W 001°05'416.9
2018-Feb-14 17:31N 49°44' W 000°59'917.8
2018-Feb-14 17:00N 49°41' W 000°46'918.9
2018-Feb-14 16:30N 49°38' W 000°32'1019.4
2018-Feb-14 16:01N 49°34' W 000°18'1019.5
2018-Feb-14 15:30N 49°31' W 000°04'714.9
2018-Feb-14 15:00N 49°29' E 000°07'2 4.7
2018-Feb-14 14:30N 49°29' E 000°10'0 0.3
2018-Feb-14 14:00N 49°29' E 000°11'1 1.8
2018-Feb-14 13:28N 49°28' E 000°12'0 0.0
2018-Feb-14 12:58N 49°28' E 000°12'0 0.0
2018-Feb-14 12:28N 49°28' E 000°12'0 0.0
2018-Feb-14 11:58N 49°28' E 000°12'0 0.0
2018-Feb-14 11:28N 49°28' E 000°12'0 0.0
2018-Feb-14 10:58N 49°28' E 000°12'0 0.0
2018-Feb-14 10:28N 49°28' E 000°12'0 0.0
2018-Feb-14 09:58N 49°28' E 000°12'0 0.0
2018-Feb-14 09:28N 49°28' E 000°12'0 0.0
2018-Feb-14 08:58N 49°28' E 000°12'0 0.0
2018-Feb-14 08:28N 49°28' E 000°12'0 0.0
2018-Feb-14 07:58N 49°28' E 000°12'0 0.0
2018-Feb-14 07:28N 49°28' E 000°12'0 0.0
2018-Feb-14 06:58N 49°28' E 000°12'0 0.0
2018-Feb-14 06:28N 49°28' E 000°12'0 0.0
2018-Feb-14 05:58N 49°28' E 000°12'0 0.0
2018-Feb-14 05:28N 49°28' E 000°12'0 0.0
2018-Feb-14 04:58N 49°28' E 000°12'0 0.0
2018-Feb-14 04:28N 49°28' E 000°12'0 0.0
2018-Feb-14 03:58N 49°28' E 000°12'0 1.0
2018-Feb-14 03:31N 49°29' E 000°11'1 1.3
2018-Feb-14 03:00N 49°29' E 000°10'0 0.0
2018-Feb-14 02:30N 49°29' E 000°10'2 3.8
2018-Feb-14 02:00N 49°28' E 000°07'714.8
2018-Feb-14 01:30N 49°30' W 000°04'612.6
2018-Feb-14 01:00N 49°34' W 000°12'5 9.1
2018-Feb-14 00:30N 49°38' W 000°13'4 7.6
2018-Feb-14 00:00N 49°41' W 000°16'4 8.6
2018-Feb-13 23:30N 49°45' W 000°19'714.9
2018-Feb-13 23:00N 49°52' W 000°24'917.1
2018-Feb-13 22:30N 49°59' W 000°30'2717.4
2018-Feb-13 20:59N 50°23' W 000°49'817.3
2018-Feb-13 20:30N 50°31' W 000°54'917.3
2018-Feb-13 20:00N 50°39' W 000°59'815.9
2018-Feb-13 19:30N 50°45' W 001°07'815.1
2018-Feb-13 19:00N 50°47' W 001°18'510.3
2018-Feb-13 18:30N 50°51' W 001°21'4 6.9
2018-Feb-13 17:56N 50°54' W 001°26'0 0.0
2018-Feb-13 17:23N 50°54' W 001°26'0 0.0
2018-Feb-13 16:56N 50°54' W 001°26'0 0.0
2018-Feb-13 13:14N 50°54' W 001°26'0 0.0
2018-Feb-13 12:53N 50°54' W 001°26'0 0.0
2018-Feb-13 11:26N 50°54' W 001°26'0 0.0
2018-Feb-13 10:56N 50°54' W 001°26'0 0.0
2018-Feb-13 10:17N 50°54' W 001°26'0 0.0
2018-Feb-13 09:56N 50°54' W 001°26'0 0.0
2018-Feb-13 09:29N 50°54' W 001°26'0 0.0
2018-Feb-13 08:59N 50°54' W 001°26'0 0.0
2018-Feb-13 08:26N 50°54' W 001°26'0 0.0
2018-Feb-13 07:50N 50°54' W 001°26'0 0.0
2018-Feb-13 07:29N 50°54' W 001°26'0 0.0
2018-Feb-13 06:56N 50°54' W 001°26'0 0.0
2018-Feb-13 06:30N 50°54' W 001°26'1 2.6
2018-Feb-13 06:00N 50°53' W 001°24'5 9.3
2018-Feb-13 05:31N 50°50' W 001°19'510.1
2018-Feb-13 05:00N 50°46' W 001°14'611.9
2018-Feb-13 04:31N 50°44' W 001°05'510.8
2018-Feb-13 04:00N 50°41' W 000°58'510.4
2018-Feb-13 03:30N 50°39' W 000°51'4 8.3
2018-Feb-13 03:00N 50°38' W 000°44'5 9.2
2018-Feb-13 02:30N 50°37' W 000°37'5 9.3
2018-Feb-13 02:00N 50°36' W 000°30'5 9.3
2018-Feb-13 01:30N 50°35' W 000°23'5 9.6
2018-Feb-13 01:00N 50°34' W 000°16'713.6
2018-Feb-13 00:31N 50°33' W 000°05'713.9
2018-Feb-13 00:01N 50°34' E 000°05'713.7
2018-Feb-12 23:30N 50°36' E 000°16'713.7
2018-Feb-12 23:00N 50°37' E 000°26'713.3
2018-Feb-12 22:30N 50°39' E 000°37'713.3
2018-Feb-12 22:00N 50°43' E 000°45'713.2
2018-Feb-12 21:30N 50°47' E 000°53'713.1
2018-Feb-12 21:00N 50°51' E 001°02'612.8
2018-Feb-12 20:30N 50°55' E 001°10'713.2
2018-Feb-12 20:00N 50°59' E 001°18'713.9
2018-Feb-12 19:30N 51°04' E 001°26'815.3
2018-Feb-12 19:01N 51°08' E 001°36'815.5
2018-Feb-12 18:31N 51°14' E 001°45'815.9
2018-Feb-12 18:00N 51°20' E 001°53'714.4
2018-Feb-12 17:31N 51°25' E 002°02'714.3
2018-Feb-12 17:01N 51°22' E 002°12'713.9
2018-Feb-12 16:30N 51°22' E 002°23'714.6
2018-Feb-12 16:00N 51°23' E 002°35'612.9
2018-Feb-12 15:30N 51°22' E 002°45'815.6
2018-Feb-12 15:00N 51°23' E 002°58'816.6
2018-Feb-12 14:30N 51°22' E 003°11'3 4.9
2018-Feb-12 13:59N 51°20' E 003°13'0 0.0
2018-Feb-12 13:29N 51°20' E 003°13'1 1.5
2018-Feb-12 13:01N 51°19' E 003°13'0 0.1
2018-Feb-12 12:29N 51°19' E 003°13'0 0.0
2018-Feb-12 11:59N 51°19' E 003°13'0 0.0
2018-Feb-12 11:29N 51°19' E 003°13'0 0.0
2018-Feb-12 10:59N 51°19' E 003°13'0 0.0
2018-Feb-12 10:29N 51°19' E 003°13'0 0.0
2018-Feb-12 09:59N 51°19' E 003°13'0 0.0
2018-Feb-12 09:29N 51°19' E 003°13'0 0.0
2018-Feb-12 08:59N 51°19' E 003°13'0 0.0
2018-Feb-12 08:29N 51°19' E 003°13'0 0.0
2018-Feb-12 07:58N 51°19' E 003°13'0 0.0
2018-Feb-12 07:28N 51°19' E 003°13'0 0.0
2018-Feb-12 06:58N 51°19' E 003°13'0 0.0
2018-Feb-12 06:28N 51°19' E 003°13'0 0.0
2018-Feb-12 05:58N 51°19' E 003°13'0 0.0
2018-Feb-12 05:28N 51°19' E 003°13'0 0.0
2018-Feb-12 04:58N 51°19' E 003°13'0 0.0
2018-Feb-12 04:28N 51°19' E 003°13'0 0.0
2018-Feb-12 03:58N 51°19' E 003°13'1 1.2
2018-Feb-12 03:30N 51°19' E 003°13'1 2.1
2018-Feb-12 03:00N 51°20' E 003°13'0 0.0
2018-Feb-12 02:30N 51°20' E 003°13'1 1.5
2018-Feb-12 02:00N 51°21' E 003°12'714.4
2018-Feb-12 01:31N 51°24' E 003°02'917.4
2018-Feb-12 01:00N 51°22' E 002°49'713.3
2018-Feb-12 00:30N 51°22' E 002°38'713.9
2018-Feb-12 00:00N 51°21' E 002°27'613.0
2018-Feb-11 23:30N 51°18' E 002°18'611.6
2018-Feb-11 23:00N 51°15' E 002°10'611.9
2018-Feb-11 22:30N 51°12' E 002°01'611.3
2018-Feb-11 22:00N 51°09' E 001°54'611.4
2018-Feb-11 21:30N 51°06' E 001°47'611.6
2018-Feb-11 20:59N 51°01' E 001°40'612.2
2018-Feb-11 20:30N 50°57' E 001°34'612.9
2018-Feb-11 20:00N 50°51' E 001°28'611.9
2018-Feb-11 19:28N 50°45' E 001°25'711.6
2018-Feb-11 18:52N 50°40' E 001°19'5012.2
2018-Feb-11 14:49N 50°19' E 000°07'413.4
2018-Feb-11 14:30N 50°18' E 000°01'713.2
2018-Feb-11 13:57N 50°16' W 000°10'2212.5
2018-Feb-11 12:10N 50°11' W 000°44'212.1
2018-Feb-11 12:00N 50°10' W 000°47'612.1
2018-Feb-11 11:30N 50°09' W 000°56'611.9
2018-Feb-11 11:00N 50°07' W 001°05'611.8
2018-Feb-11 10:30N 50°05' W 001°13'611.9
2018-Feb-11 10:00N 50°03' W 001°22'  

Dump ship's entire track history